Ansley, Mississippi
Current Conditions -  °F | °C
As of 6:12 PM on Saturday 22 Nov 2014 (Local Time) from KASD Reporting Station
Overcast Overcast  
Wind Chill: 64°   Ceiling: 1200
Heat Index: 64°   Visibility: 10mi
Dew Point: 59°   Wind: 7mph
Humidity: 84%   Direction: 100°E
Pressure: 30.03"   Gusts: NA
Location:  30.2253°N, 89.4838°W
Report Text: KASD 230012Z AUTO 10006KT 10SM BKN012 BKN017 OVC024 18/15 A3003 RMK AO2 T01780150
Loading
Personal Weather Stations






























Interactive Weather Map New forecast layout! Learn more

10-Day Weather Forecast

Advertisements
Track Severe Weather on mobile